Flag for France

Past Weather in 47°59'45.4"N, 4°06'09.4"W, France — Yesterday and Last 2 Weeks

Currently: 66 °F. Low clouds. (Weather station: Quimper Airport, France). See more current weather

Past Weather in 47°59'45.4"N, 4°06'09.4"W — Graph

°F

47°59'45.4"N, 4°06'09.4"W Temperature Yesterday

Maximum temperature yesterday: 64 °F (at 11:00 am)
Minimum temperature yesterday: 55 °F (at 5:30 am)
Average temperature yesterday: 59 °F

High & Low Weather Summary for the Past Weeks

 TemperatureHumidityPressure
High73 °F (Jun 20, 3:30 pm)100% (Jun 13, 3:30 am)30.24 "Hg (Jun 13, 3:30 am)
Low43 °F (Jun 13, 5:30 am)42% (Jun 11, 4:00 pm)29.65 "Hg (Jun 14, 8:00 pm)
Average58 °F82%29.97 "Hg
* Reported Jun 8 1:00 pm — Jun 23 1:00 pm, 47°59'45.4"N, 4°06'09.4"W. Weather by CustomWeather, © 2024

Note: Actual official high and low records may vary slightly from our data, if they occured in-between our weather recording intervals... More about our weather records

47°59'45.4"N, 4°06'09.4"W Weather History for the Previous 24 Hours

Scroll right to see more
 ConditionsComfort  
Time TempWeatherWind HumidityBarometerVisibility
1:00 pm
Sun, Jun 23
64 °FMostly cloudy.7 mph94%30.15 "HgN/A
12:30 pm64 °FMostly cloudy.5 mph94%30.15 "HgN/A
12:00 pm64 °FMostly cloudy.3 mph94%30.12 "HgN/A
11:30 am64 °FMostly cloudy.3 mph88%30.12 "HgN/A
11:00 am64 °FMostly cloudy.5 mph94%30.12 "HgN/A
10:30 am63 °FMostly cloudy.3 mph100%30.12 "HgN/A
10:00 am63 °FMostly cloudy.3 mph100%30.12 "HgN/A
9:30 am63 °FMostly cloudy.2 mph94%30.12 "HgN/A
9:00 am61 °FFog.3 mph100%30.12 "Hg2 mi
8:30 am61 °FMostly cloudy.No wind100%30.12 "HgN/A
8:00 am61 °FFog.No wind100%30.09 "Hg3 mi
7:30 am61 °FDrizzle. Fog.No wind100%30.09 "Hg2 mi
7:00 am61 °FLow clouds.No wind94%30.09 "Hg6 mi
6:30 am61 °FMostly cloudy.1 mph94%30.09 "Hg6 mi
6:00 am61 °FFog.2 mph94%30.09 "Hg2 mi
5:30 am61 °FDrizzle. Fog.2 mph100%30.09 "Hg2 mi
5:00 am61 °FFog.2 mph100%30.09 "Hg2 mi
4:30 am61 °FDrizzle. Fog.2 mph100%30.09 "Hg2 mi
4:00 am61 °FDrizzle. Fog.3 mph100%30.09 "Hg2 mi
3:30 am61 °FDrizzle. Fog.5 mph100%30.09 "Hg2 mi
3:00 am61 °FDrizzle. Fog.3 mph100%30.09 "Hg1 mi
2:30 am61 °FFog.5 mph94%30.09 "Hg1 mi
2:00 am61 °FFog.5 mph94%30.09 "Hg1 mi
1:30 am59 °FFog.6 mph100%30.09 "Hg1 mi
1:00 am59 °FFog.6 mph100%30.09 "Hg1 mi
12:30 am59 °FFog.5 mph100%30.09 "Hg1 mi
12:00 am59 °FDrizzle. Fog.6 mph94%30.09 "Hg1 mi
11:30 pm
Sat, Jun 22
59 °FFog.6 mph94%30.09 "Hg2 mi
11:00 pm59 °FLow clouds.3 mph94%30.09 "Hg4 mi
10:30 pm59 °FLow clouds.6 mph94%30.09 "HgN/A
10:00 pm59 °FLow clouds.7 mph94%30.09 "HgN/A
9:30 pm59 °FLow clouds.7 mph94%30.09 "HgN/A
9:00 pm59 °FLow clouds.7 mph94%30.09 "HgN/A
8:30 pm59 °FOvercast.6 mph88%30.09 "HgN/A
8:00 pm59 °FMostly cloudy.5 mph88%30.09 "HgN/A
7:30 pm59 °FMostly cloudy.8 mph88%30.09 "HgN/A
7:00 pm61 °FMostly cloudy.8 mph83%30.09 "HgN/A
6:30 pm61 °FOvercast.9 mph83%30.09 "HgN/A
6:00 pm63 °FMostly cloudy.9 mph77%30.09 "HgN/A
5:30 pm63 °FMostly cloudy.8 mph77%30.09 "HgN/A
5:00 pm61 °FPartly sunny.9 mph83%30.09 "HgN/A
4:30 pm61 °FBroken clouds.9 mph88%30.09 "HgN/A
4:00 pm63 °FPartly sunny.12 mph77%30.09 "HgN/A
3:30 pm63 °FCloudy.9 mph77%30.09 "HgN/A
3:00 pm61 °FMostly cloudy.12 mph83%30.09 "HgN/A
2:30 pm61 °FMostly cloudy.9 mph77%30.09 "HgN/A
2:00 pm61 °FMore clouds than sun.10 mph83%30.09 "HgN/A
Weather by CustomWeather, © 2024

See weather overview